createdAt,value
2022-08-04T00:00:27.538Z,21.90
2022-08-04T00:03:07.574Z,21.90
2022-08-04T00:05:48.398Z,21.90
2022-08-04T00:08:23.880Z,21.70
2022-08-04T00:10:55.546Z,21.70
2022-08-04T00:13:26.634Z,21.80
2022-08-04T00:15:58.680Z,21.70
2022-08-04T00:18:35.264Z,21.50
2022-08-04T00:21:07.960Z,21.50
2022-08-04T00:24:12.030Z,21.60
2022-08-04T00:26:33.154Z,21.60
2022-08-04T00:29:03.305Z,21.50
2022-08-04T00:31:54.395Z,21.30
2022-08-04T00:34:20.738Z,21.30
2022-08-04T00:36:49.234Z,21.30
2022-08-04T00:39:19.646Z,21.40
2022-08-04T00:42:04.080Z,21.50
2022-08-04T00:44:46.561Z,21.40
2022-08-04T00:47:30.859Z,21.40
2022-08-04T00:50:13.730Z,21.30
2022-08-04T00:53:03.318Z,21.20
2022-08-04T00:55:53.416Z,21.20
2022-08-04T00:58:31.117Z,21.10
2022-08-04T01:01:05.604Z,21.20
2022-08-04T01:03:50.984Z,21.40
2022-08-04T01:06:31.719Z,21.30
2022-08-04T01:09:25.280Z,21.40
2022-08-04T01:12:17.694Z,21.20
2022-08-04T01:14:58.359Z,21.20
2022-08-04T01:17:51.878Z,21.10
2022-08-04T01:20:25.736Z,21.20
2022-08-04T01:23:32.892Z,21.10
2022-08-04T01:26:43.712Z,21.00
2022-08-04T01:29:15.867Z,21.10
2022-08-04T01:32:00.965Z,21.10
2022-08-04T01:34:32.692Z,21.10
2022-08-04T01:37:09.142Z,21.30
2022-08-04T01:39:44.242Z,21.30
2022-08-04T01:42:31.395Z,21.20
2022-08-04T01:45:05.349Z,21.20
2022-08-04T01:47:36.890Z,21.10
2022-08-04T01:50:08.701Z,21.10
2022-08-04T01:52:38.161Z,21.00
2022-08-04T01:55:10.080Z,20.90
2022-08-04T01:57:43.101Z,21.00
2022-08-04T02:00:15.126Z,21.20
2022-08-04T02:02:43.730Z,21.20
2022-08-04T02:05:12.941Z,21.10
2022-08-04T02:08:00.542Z,21.10
2022-08-04T02:10:31.110Z,21.20
2022-08-04T02:13:12.041Z,21.20
2022-08-04T02:15:54.550Z,21.20
2022-08-04T02:18:29.107Z,21.10
2022-08-04T02:20:59.808Z,21.10
2022-08-04T02:23:35.935Z,21.10
2022-08-04T02:26:06.341Z,21.10
2022-08-04T02:28:47.199Z,21.10
2022-08-04T02:31:29.035Z,21.10
2022-08-04T02:34:07.438Z,21.10
2022-08-04T02:36:38.439Z,21.10
2022-08-04T02:39:08.721Z,21.20
2022-08-04T02:41:37.736Z,21.10
2022-08-04T02:44:08.192Z,21.10
2022-08-04T02:46:40.892Z,21.10
2022-08-04T02:49:11.384Z,21.10
2022-08-04T02:51:44.248Z,21.10
2022-08-04T02:54:12.897Z,21.10
2022-08-04T02:56:42.407Z,21.10
2022-08-04T02:59:12.206Z,21.10
2022-08-04T03:01:57.702Z,21.10
2022-08-04T03:04:50.729Z,21.10
2022-08-04T03:07:40.036Z,21.00
2022-08-04T03:10:55.208Z,21.00
2022-08-04T03:13:46.529Z,20.90
2022-08-04T03:16:38.517Z,20.90
2022-08-04T03:19:36.889Z,20.90
2022-08-04T03:23:11.475Z,21.00
2022-08-04T03:26:14.520Z,21.00
2022-08-04T03:29:14.145Z,21.00
2022-08-04T03:32:36.116Z,20.90
2022-08-04T03:35:31.278Z,20.80
2022-08-04T03:38:22.745Z,20.80
2022-08-04T03:41:07.892Z,20.80
2022-08-04T03:44:12.057Z,20.80
2022-08-04T03:46:55.127Z,20.80
2022-08-04T03:49:57.818Z,20.80
2022-08-04T03:53:11.619Z,20.70
2022-08-04T03:56:18.381Z,20.60
2022-08-04T03:59:06.260Z,20.60
2022-08-04T04:02:07.055Z,20.60
2022-08-04T04:04:56.782Z,20.50
2022-08-04T04:08:01.341Z,20.40
2022-08-04T04:11:03.033Z,20.40
2022-08-04T04:14:07.193Z,20.30
2022-08-04T04:16:50.919Z,20.20
2022-08-04T04:19:48.621Z,20.20
2022-08-04T04:22:32.348Z,20.30
2022-08-04T04:25:13.547Z,20.40
2022-08-04T04:27:51.790Z,20.40
2022-08-04T04:30:31.622Z,20.40
2022-08-04T04:33:24.005Z,20.30
2022-08-04T04:36:04.496Z,20.70
2022-08-04T04:38:59.062Z,21.20
2022-08-04T04:41:51.974Z,21.10
2022-08-04T04:44:46.492Z,21.10
2022-08-04T04:47:42.972Z,21.00
2022-08-04T04:50:17.776Z,20.80
2022-08-04T04:52:50.799Z,20.80
2022-08-04T04:55:22.713Z,20.70
2022-08-04T04:57:55.238Z,21.00
2022-08-04T05:00:27.481Z,21.10
2022-08-04T05:03:26.278Z,21.00
2022-08-04T05:06:22.912Z,21.00
2022-08-04T05:09:19.140Z,21.50
2022-08-04T05:14:30.024Z,21.80
2022-08-04T05:15:10.159Z,21.80
2022-08-04T05:17:41.473Z,21.60
2022-08-04T05:20:14.184Z,22.00
2022-08-04T05:22:51.179Z,22.30
2022-08-04T05:25:23.880Z,22.30
2022-08-04T05:27:57.386Z,22.80
2022-08-04T05:30:28.445Z,23.00
2022-08-04T05:33:03.482Z,23.10
2022-08-04T05:35:52.985Z,23.20
2022-08-04T05:38:28.542Z,23.30
2022-08-04T05:40:58.282Z,23.50
2022-08-04T05:43:28.034Z,23.60
2022-08-04T05:45:57.924Z,23.20
2022-08-04T05:48:27.565Z,23.10
2022-08-04T05:51:00.731Z,23.30
2022-08-04T05:53:32.608Z,23.60
2022-08-04T05:56:03.312Z,23.80
2022-08-04T05:58:32.390Z,24.10
2022-08-04T06:01:02.056Z,24.00
2022-08-04T06:03:32.957Z,24.10
2022-08-04T06:06:02.361Z,24.10
2022-08-04T06:08:32.731Z,24.40
2022-08-04T06:11:05.489Z,24.50
2022-08-04T06:13:48.455Z,24.60
2022-08-04T06:16:30.023Z,24.60
2022-08-04T06:19:59.694Z,24.70
2022-08-04T06:21:55.150Z,24.60
2022-08-04T06:24:27.959Z,24.90
2022-08-04T06:26:57.870Z,24.90
2022-08-04T06:29:34.241Z,24.90
2022-08-04T06:32:30.346Z,24.80
2022-08-04T06:35:03.093Z,24.90
2022-08-04T06:37:43.481Z,24.90
2022-08-04T06:40:32.021Z,25.00
2022-08-04T06:43:01.932Z,25.10
2022-08-04T06:45:31.409Z,25.30
2022-08-04T06:48:01.203Z,25.40
2022-08-04T06:51:32.267Z,25.50
2022-08-04T06:53:19.079Z,25.40
2022-08-04T06:55:50.429Z,25.40
2022-08-04T06:58:20.432Z,25.40
2022-08-04T07:00:49.775Z,25.70
2022-08-04T07:03:19.813Z,25.50
2022-08-04T07:05:48.903Z,25.90
2022-08-04T07:08:17.785Z,25.80
2022-08-04T07:10:47.435Z,26.00
2022-08-04T07:13:18.989Z,26.10
2022-08-04T07:15:49.043Z,26.20
2022-08-04T07:18:17.876Z,26.30
2022-08-04T07:20:47.572Z,26.50
2022-08-04T07:23:19.841Z,26.60
2022-08-04T07:26:10.752Z,26.60
2022-08-04T07:28:42.917Z,26.50
2022-08-04T07:31:35.362Z,26.80
2022-08-04T07:34:17.726Z,26.70
2022-08-04T07:36:52.956Z,26.70
2022-08-04T07:39:28.336Z,26.90
2022-08-04T07:41:59.293Z,27.00
2022-08-04T07:44:32.573Z,27.20
2022-08-04T07:47:01.419Z,27.30
2022-08-04T07:49:55.552Z,27.30
2022-08-04T07:52:18.961Z,27.30
2022-08-04T07:54:47.725Z,27.40
2022-08-04T07:57:19.678Z,27.40
2022-08-04T08:00:10.204Z,27.60
2022-08-04T08:02:41.596Z,27.60
2022-08-04T08:05:12.174Z,27.70
2022-08-04T08:07:50.925Z,27.70
2022-08-04T08:10:23.338Z,27.80
2022-08-04T08:12:52.986Z,27.80
2022-08-04T08:15:23.527Z,27.90
2022-08-04T08:18:00.068Z,28.00
2022-08-04T08:20:30.968Z,28.10
2022-08-04T08:23:00.448Z,28.10
2022-08-04T08:25:31.500Z,28.10
2022-08-04T08:28:00.471Z,28.20
2022-08-04T08:30:31.544Z,28.30
2022-08-04T08:33:07.032Z,28.50
2022-08-04T08:35:53.961Z,28.60
2022-08-04T08:38:38.178Z,28.70
2022-08-04T08:41:23.223Z,28.80
2022-08-04T08:44:07.619Z,28.90
2022-08-04T08:46:54.036Z,29.00
2022-08-04T08:50:01.956Z,29.10
2022-08-04T08:53:00.771Z,29.20
2022-08-04T08:55:43.849Z,29.10
2022-08-04T08:58:36.576Z,29.20
2022-08-04T09:01:13.602Z,29.30
2022-08-04T09:04:23.810Z,29.40
2022-08-04T09:07:22.855Z,29.50
2022-08-04T09:10:03.361Z,29.60
2022-08-04T09:12:51.797Z,29.80
2022-08-04T09:15:28.698Z,29.90
2022-08-04T09:18:01.261Z,30.10
2022-08-04T09:20:40.074Z,30.00
2022-08-04T09:23:17.980Z,29.90
2022-08-04T09:25:52.480Z,29.90
2022-08-04T09:28:51.718Z,30.30
2022-08-04T09:31:16.238Z,30.40
2022-08-04T09:33:51.920Z,30.40
2022-08-04T09:36:30.524Z,30.50
2022-08-04T09:39:10.048Z,30.80
2022-08-04T09:41:52.622Z,30.90
2022-08-04T09:44:50.505Z,30.90
2022-08-04T09:47:24.108Z,30.80
2022-08-04T09:49:59.579Z,30.80
2022-08-04T09:52:40.611Z,30.90
2022-08-04T09:55:20.671Z,31.20
2022-08-04T09:57:59.283Z,31.10
2022-08-04T10:00:41.044Z,30.90
2022-08-04T10:03:17.424Z,31.00
2022-08-04T10:06:03.871Z,31.20
2022-08-04T10:08:56.973Z,31.40
2022-08-04T10:11:54.471Z,31.60
2022-08-04T10:14:39.863Z,31.80
2022-08-04T10:17:23.494Z,32.10
2022-08-04T10:19:59.349Z,32.30
2022-08-04T10:22:40.772Z,32.20
2022-08-04T10:26:03.047Z,32.10
2022-08-04T10:28:22.550Z,32.10
2022-08-04T10:30:55.762Z,32.00
2022-08-04T10:33:29.044Z,32.00
2022-08-04T10:36:04.311Z,32.10
2022-08-04T10:38:37.373Z,32.20
2022-08-04T10:41:13.941Z,32.20
2022-08-04T10:43:54.209Z,32.10
2022-08-04T10:46:28.125Z,32.10
2022-08-04T10:49:00.096Z,32.20
2022-08-04T10:51:57.236Z,32.20
2022-08-04T10:54:30.432Z,32.50
2022-08-04T10:57:05.844Z,32.50
2022-08-04T10:59:41.900Z,32.40
2022-08-04T11:02:27.431Z,32.40
2022-08-04T11:05:05.425Z,32.40
2022-08-04T11:07:36.698Z,32.60
2022-08-04T11:10:06.131Z,32.80
2022-08-04T11:12:36.798Z,32.90
2022-08-04T11:15:12.124Z,32.80
2022-08-04T11:17:43.437Z,32.70
2022-08-04T11:20:35.052Z,32.50
2022-08-04T11:23:09.228Z,32.40
2022-08-04T11:25:52.104Z,32.30
2022-08-04T11:28:32.232Z,32.20
2022-08-04T11:31:06.260Z,32.00
2022-08-04T11:33:42.517Z,32.10
2022-08-04T11:36:21.546Z,32.00
2022-08-04T11:39:00.321Z,32.30
2022-08-04T11:41:40.182Z,32.50
2022-08-04T11:44:16.682Z,32.60
2022-08-04T11:46:51.729Z,32.50
2022-08-04T11:49:30.519Z,32.30
2022-08-04T11:52:01.591Z,32.20
2022-08-04T11:54:29.871Z,32.30
2022-08-04T11:56:58.214Z,32.20
2022-08-04T11:59:30.326Z,32.20
2022-08-04T12:02:12.563Z,32.20
2022-08-04T12:04:48.482Z,32.30
2022-08-04T12:07:31.426Z,32.30
2022-08-04T12:10:12.922Z,32.20
2022-08-04T12:12:49.172Z,32.40
2022-08-04T12:15:24.895Z,32.40
2022-08-04T12:18:02.661Z,32.40
2022-08-04T12:20:41.745Z,32.30
2022-08-04T12:23:22.944Z,32.30
2022-08-04T12:25:55.846Z,32.30
2022-08-04T12:28:46.469Z,32.30
2022-08-04T12:31:23.526Z,32.20
2022-08-04T12:34:04.694Z,32.20
2022-08-04T12:36:41.309Z,32.30
2022-08-04T12:39:14.064Z,32.20
2022-08-04T12:41:53.855Z,32.20
2022-08-04T12:44:37.475Z,32.00
2022-08-04T12:47:36.693Z,31.80
2022-08-04T12:50:04.210Z,31.70
2022-08-04T12:53:01.708Z,31.70
2022-08-04T12:55:28.899Z,31.70
2022-08-04T12:57:58.917Z,31.70
2022-08-04T13:00:33.153Z,31.80
2022-08-04T13:03:10.926Z,31.80
2022-08-04T13:05:42.259Z,31.70
2022-08-04T13:08:12.722Z,31.50
2022-08-04T13:10:43.158Z,31.40
2022-08-04T13:13:18.577Z,31.30
2022-08-04T13:15:58.196Z,31.10
2022-08-04T13:18:32.277Z,31.00
2022-08-04T13:21:20.134Z,30.90
2022-08-04T13:24:20.486Z,30.80
2022-08-04T13:26:56.760Z,30.70
2022-08-04T13:30:00.644Z,30.70
2022-08-04T13:32:25.458Z,30.60
2022-08-04T13:34:57.168Z,30.60
2022-08-04T13:37:31.661Z,30.70
2022-08-04T13:40:01.435Z,31.00
2022-08-04T13:42:30.525Z,31.00
2022-08-04T13:45:01.366Z,31.10
2022-08-04T13:47:33.453Z,30.90
2022-08-04T13:50:15.791Z,30.70
2022-08-04T13:52:45.397Z,30.70
2022-08-04T13:55:25.640Z,30.60
2022-08-04T13:57:59.354Z,30.50
2022-08-04T14:00:38.617Z,30.50
2022-08-04T14:03:23.744Z,30.30
2022-08-04T14:06:16.596Z,29.90
2022-08-04T14:08:50.543Z,29.90
2022-08-04T14:12:09.590Z,29.80
2022-08-04T14:14:19.772Z,29.70
2022-08-04T14:17:03.482Z,29.80
2022-08-04T14:19:49.681Z,29.70
2022-08-04T14:22:33.600Z,29.60
2022-08-04T14:25:05.329Z,29.50
2022-08-04T14:27:43.973Z,29.60
2022-08-04T14:30:29.503Z,29.70
2022-08-04T14:34:00.632Z,29.80
2022-08-04T14:35:59.019Z,29.90
2022-08-04T14:38:44.117Z,30.10
2022-08-04T14:41:13.073Z,30.20
2022-08-04T14:43:46.422Z,30.20
2022-08-04T14:46:15.389Z,30.20
2022-08-04T14:49:03.127Z,30.10
2022-08-04T14:51:37.065Z,30.00
2022-08-04T14:54:09.578Z,29.90
2022-08-04T14:56:47.649Z,30.00
2022-08-04T14:59:16.193Z,30.00
2022-08-04T15:01:46.697Z,30.10
2022-08-04T15:04:31.456Z,30.10
2022-08-04T15:07:00.847Z,30.10
2022-08-04T15:09:34.771Z,30.10
2022-08-04T15:12:04.347Z,29.90
2022-08-04T15:14:37.708Z,29.90
2022-08-04T15:17:27.160Z,29.70
2022-08-04T15:19:57.995Z,29.60
2022-08-04T15:22:26.504Z,29.40
2022-08-04T15:24:57.696Z,29.30
2022-08-04T15:27:29.173Z,29.30
2022-08-04T15:30:02.320Z,29.20
2022-08-04T15:32:33.956Z,29.10
2022-08-04T15:35:06.690Z,29.00
2022-08-04T15:37:46.301Z,28.90
2022-08-04T15:40:27.145Z,28.90
2022-08-04T15:43:15.392Z,28.80
2022-08-04T15:46:02.225Z,28.80
2022-08-04T15:48:40.498Z,28.70
2022-08-04T15:51:14.573Z,28.70
2022-08-04T15:54:23.327Z,28.70
2022-08-04T15:57:02.573Z,28.70
2022-08-04T15:59:57.062Z,28.60
2022-08-04T16:02:40.701Z,28.50
2022-08-04T16:05:36.725Z,28.40
2022-08-04T16:08:16.946Z,28.40
2022-08-04T16:10:48.421Z,28.40
2022-08-04T16:13:20.560Z,28.50
2022-08-04T16:15:51.504Z,28.60
2022-08-04T16:18:43.654Z,28.60
2022-08-04T16:21:26.068Z,28.60
2022-08-04T16:24:14.372Z,28.60
2022-08-04T16:26:56.428Z,28.50
2022-08-04T16:29:31.197Z,28.40
2022-08-04T16:32:23.041Z,28.30
2022-08-04T16:34:59.768Z,28.30
2022-08-04T16:37:34.427Z,28.20
2022-08-04T16:40:37.226Z,28.20
2022-08-04T16:43:09.263Z,28.10
2022-08-04T16:45:44.540Z,28.20
2022-08-04T16:48:13.596Z,28.30
2022-08-04T16:50:53.662Z,28.30
2022-08-04T16:54:02.825Z,28.30
2022-08-04T16:56:14.548Z,28.30
2022-08-04T16:58:53.659Z,28.20
2022-08-04T17:01:33.318Z,28.20
2022-08-04T17:04:06.189Z,28.20
2022-08-04T17:06:36.585Z,28.10
2022-08-04T17:09:07.095Z,28.10
2022-08-04T17:11:35.461Z,28.10
2022-08-04T17:14:06.016Z,28.10
2022-08-04T17:16:38.114Z,28.10
2022-08-04T17:19:23.727Z,28.20
2022-08-04T17:22:02.381Z,28.30
2022-08-04T17:24:32.532Z,28.40
2022-08-04T17:27:01.032Z,28.50
2022-08-04T17:29:42.283Z,28.50
2022-08-04T17:32:17.257Z,28.40
2022-08-04T17:34:49.245Z,28.30
2022-08-04T17:37:39.169Z,28.30
2022-08-04T17:40:11.904Z,28.30
2022-08-04T17:42:41.709Z,28.10
2022-08-04T17:48:03.644Z,27.90
2022-08-04T17:50:35.926Z,27.70
2022-08-04T17:53:12.585Z,27.70
2022-08-04T17:55:43.316Z,27.50
2022-08-04T17:58:20.817Z,27.50
2022-08-04T18:03:51.908Z,27.30
2022-08-04T18:06:23.427Z,27.20
2022-08-04T18:08:58.962Z,27.20
2022-08-04T18:11:56.262Z,27.10
2022-08-04T18:14:25.954Z,27.00
2022-08-04T18:16:57.535Z,26.90
2022-08-04T18:22:16.692Z,26.80
2022-08-04T18:24:56.945Z,26.80
2022-08-04T18:27:29.705Z,26.60
2022-08-04T18:30:33.373Z,26.50
2022-08-04T18:33:24.319Z,26.50
2022-08-04T18:36:34.461Z,26.50
2022-08-04T18:38:26.219Z,26.40
2022-08-04T18:40:57.928Z,26.30
2022-08-04T18:43:28.453Z,26.20
2022-08-04T18:45:59.573Z,26.20
2022-08-04T18:48:36.057Z,26.10
2022-08-04T18:51:23.313Z,26.00
2022-08-04T18:53:54.931Z,25.90
2022-08-04T18:56:30.029Z,25.80
2022-08-04T18:59:00.946Z,25.70
2022-08-04T19:02:13.325Z,25.60
2022-08-04T19:04:33.888Z,25.50
2022-08-04T19:07:24.579Z,25.50
2022-08-04T19:09:58.025Z,25.40
2022-08-04T19:12:28.644Z,25.30
2022-08-04T19:15:08.645Z,25.30
2022-08-04T19:17:53.359Z,25.20
2022-08-04T19:20:26.975Z,25.20
2022-08-04T19:26:04.244Z,25.00
2022-08-04T19:31:28.213Z,24.90
2022-08-04T19:34:09.288Z,24.80
2022-08-04T19:36:38.873Z,24.80
2022-08-04T19:39:15.824Z,24.80
2022-08-04T19:42:06.633Z,24.80
2022-08-04T19:44:32.931Z,24.70
2022-08-04T19:47:02.244Z,24.60
2022-08-04T19:50:04.432Z,24.60
2022-08-04T19:52:33.842Z,24.50
2022-08-04T19:55:10.784Z,24.50
2022-08-04T19:57:46.557Z,24.40
2022-08-04T20:00:33.048Z,24.30
2022-08-04T20:03:03.118Z,24.20
2022-08-04T20:05:52.774Z,24.20
2022-08-04T20:08:20.387Z,24.30
2022-08-04T20:10:51.975Z,24.20
2022-08-04T20:13:20.968Z,24.10
2022-08-04T20:15:55.517Z,24.10
2022-08-04T20:18:35.594Z,24.00
2022-08-04T20:21:19.072Z,24.00
2022-08-04T20:23:50.130Z,24.00
2022-08-04T20:26:20.836Z,23.90
2022-08-04T20:28:51.794Z,23.90
2022-08-04T20:31:20.946Z,23.90
2022-08-04T20:33:54.779Z,23.70
2022-08-04T20:36:23.881Z,23.70
2022-08-04T20:38:54.566Z,23.60
2022-08-04T20:41:24.403Z,23.60
2022-08-04T20:43:52.754Z,23.50
2022-08-04T20:46:28.524Z,23.50
2022-08-04T20:48:58.305Z,23.50
2022-08-04T20:51:33.433Z,23.40
2022-08-04T20:54:16.073Z,23.30
2022-08-04T20:56:50.896Z,23.20
2022-08-04T20:59:20.145Z,23.30
2022-08-04T21:01:49.667Z,23.30
2022-08-04T21:04:35.745Z,23.20
2022-08-04T21:07:06.507Z,23.10
2022-08-04T21:12:28.018Z,23.00
2022-08-04T21:15:01.222Z,23.00
2022-08-04T21:17:58.079Z,23.10
2022-08-04T21:20:29.669Z,23.10
2022-08-04T21:23:01.573Z,23.00
2022-08-04T21:25:30.288Z,23.00
2022-08-04T21:28:04.413Z,22.90
2022-08-04T21:30:52.222Z,22.90
2022-08-04T21:33:22.139Z,22.90
2022-08-04T21:35:54.363Z,22.90
2022-08-04T21:38:25.145Z,22.80
2022-08-04T21:40:57.466Z,22.80
2022-08-04T21:43:29.929Z,22.90
2022-08-04T21:46:11.743Z,22.90
2022-08-04T21:48:42.305Z,23.00
2022-08-04T21:51:55.816Z,22.90
2022-08-04T21:54:08.844Z,23.00
2022-08-04T21:56:38.191Z,23.00
2022-08-04T21:59:14.282Z,23.10
2022-08-04T22:01:52.160Z,23.10
2022-08-04T22:04:21.237Z,23.00
2022-08-04T22:06:52.100Z,23.00
2022-08-04T22:09:22.401Z,23.00
2022-08-04T22:11:52.215Z,23.00
2022-08-04T22:14:27.680Z,23.00
2022-08-04T22:16:58.701Z,23.00
2022-08-04T22:19:49.727Z,23.00
2022-08-04T22:22:24.999Z,22.90
2022-08-04T22:24:58.516Z,22.90
2022-08-04T22:27:42.156Z,22.80
2022-08-04T22:30:17.111Z,22.70
2022-08-04T22:32:47.246Z,22.80
2022-08-04T22:35:35.822Z,22.70
2022-08-04T22:38:05.800Z,22.70
2022-08-04T22:40:36.271Z,22.70
2022-08-04T22:43:31.369Z,22.60
2022-08-04T22:45:54.356Z,22.60
2022-08-04T22:48:24.147Z,22.50
2022-08-04T22:50:56.529Z,22.50
2022-08-04T22:53:24.841Z,22.60
2022-08-04T22:56:06.880Z,22.50
2022-08-04T22:58:40.556Z,22.50
2022-08-04T23:01:15.292Z,22.50
2022-08-04T23:03:50.907Z,22.50
2022-08-04T23:06:28.713Z,22.50
2022-08-04T23:08:58.098Z,22.40
2022-08-04T23:11:35.258Z,22.40
2022-08-04T23:14:05.714Z,22.40
2022-08-04T23:16:40.887Z,22.50
2022-08-04T23:19:12.146Z,22.50
2022-08-04T23:21:47.362Z,22.50
2022-08-04T23:24:29.459Z,22.40
2022-08-04T23:26:58.331Z,22.40
2022-08-04T23:29:27.563Z,22.40
2022-08-04T23:32:14.832Z,22.50
2022-08-04T23:34:48.592Z,22.40
2022-08-04T23:37:16.936Z,22.30
2022-08-04T23:40:14.219Z,22.20
2022-08-04T23:42:33.617Z,22.30
2022-08-04T23:45:03.392Z,22.30
2022-08-04T23:48:16.003Z,22.30
2022-08-04T23:50:21.361Z,22.00
2022-08-04T23:52:49.622Z,21.50
2022-08-04T23:55:19.295Z,21.00
2022-08-04T23:58:06.401Z,20.80
